sensor_id;sensor_type;location;lat;lon;timestamp;temperature;humidity
14122;DHT22;7139;48.114;11.442;2023-06-01T00:01:56;15.40;95.60
14122;DHT22;7139;48.114;11.442;2023-06-01T00:04:25;15.30;95.80
14122;DHT22;7139;48.114;11.442;2023-06-01T00:06:51;15.30;95.80
14122;DHT22;7139;48.114;11.442;2023-06-01T00:09:18;15.30;96.00
14122;DHT22;7139;48.114;11.442;2023-06-01T00:11:45;15.30;96.10
14122;DHT22;7139;48.114;11.442;2023-06-01T00:14:12;15.20;96.20
14122;DHT22;7139;48.114;11.442;2023-06-01T00:16:39;15.20;96.40
14122;DHT22;7139;48.114;11.442;2023-06-01T00:19:05;15.20;96.20
14122;DHT22;7139;48.114;11.442;2023-06-01T00:21:34;15.10;96.30
14122;DHT22;7139;48.114;11.442;2023-06-01T00:24:02;15.10;96.40
14122;DHT22;7139;48.114;11.442;2023-06-01T00:26:29;15.10;96.40
14122;DHT22;7139;48.114;11.442;2023-06-01T00:28:57;15.00;96.50
14122;DHT22;7139;48.114;11.442;2023-06-01T00:31:24;15.00;96.50
14122;DHT22;7139;48.114;11.442;2023-06-01T00:33:50;15.00;96.70
14122;DHT22;7139;48.114;11.442;2023-06-01T00:36:17;14.90;96.80
14122;DHT22;7139;48.114;11.442;2023-06-01T00:38:46;14.90;97.00
14122;DHT22;7139;48.114;11.442;2023-06-01T00:41:12;14.90;97.00
14122;DHT22;7139;48.114;11.442;2023-06-01T00:43:39;14.80;97.00
14122;DHT22;7139;48.114;11.442;2023-06-01T00:46:06;14.80;97.10
14122;DHT22;7139;48.114;11.442;2023-06-01T00:48:35;14.80;97.10
14122;DHT22;7139;48.114;11.442;2023-06-01T00:51:02;14.70;97.20
14122;DHT22;7139;48.114;11.442;2023-06-01T00:53:29;14.70;97.10
14122;DHT22;7139;48.114;11.442;2023-06-01T00:55:57;14.60;97.00
14122;DHT22;7139;48.114;11.442;2023-06-01T00:58:24;14.60;97.40
14122;DHT22;7139;48.114;11.442;2023-06-01T01:00:51;14.50;97.30
14122;DHT22;7139;48.114;11.442;2023-06-01T01:03:19;14.50;97.60
14122;DHT22;7139;48.114;11.442;2023-06-01T01:05:47;14.40;97.70
14122;DHT22;7139;48.114;11.442;2023-06-01T01:08:20;14.40;97.80
14122;DHT22;7139;48.114;11.442;2023-06-01T01:10:55;14.30;97.80
14122;DHT22;7139;48.114;11.442;2023-06-01T01:13:29;14.20;97.90
14122;DHT22;7139;48.114;11.442;2023-06-01T01:16:00;14.20;98.20
14122;DHT22;7139;48.114;11.442;2023-06-01T01:18:33;14.20;98.20
14122;DHT22;7139;48.114;11.442;2023-06-01T01:21:04;14.20;98.20
14122;DHT22;7139;48.114;11.442;2023-06-01T01:24:14;14.10;98.20
14122;DHT22;7139;48.114;11.442;2023-06-01T01:26:51;14.10;98.10
14122;DHT22;7139;48.114;11.442;2023-06-01T01:29:21;14.00;98.30
14122;DHT22;7139;48.114;11.442;2023-06-01T01:31:50;14.00;98.30
14122;DHT22;7139;48.114;11.442;2023-06-01T01:34:18;14.00;98.50
14122;DHT22;7139;48.114;11.442;2023-06-01T01:36:46;14.00;98.50
14122;DHT22;7139;48.114;11.442;2023-06-01T01:39:13;14.00;98.60
14122;DHT22;7139;48.114;11.442;2023-06-01T01:41:39;13.90;98.60
14122;DHT22;7139;48.114;11.442;2023-06-01T01:44:06;13.90;98.50
14122;DHT22;7139;48.114;11.442;2023-06-01T01:46:41;13.80;98.50
14122;DHT22;7139;48.114;11.442;2023-06-01T01:49:13;13.80;98.40
14122;DHT22;7139;48.114;11.442;2023-06-01T01:51:49;13.70;98.40
14122;DHT22;7139;48.114;11.442;2023-06-01T01:54:17;13.70;98.50
14122;DHT22;7139;48.114;11.442;2023-06-01T01:56:45;13.60;98.70
14122;DHT22;7139;48.114;11.442;2023-06-01T01:59:13;13.60;98.70
14122;DHT22;7139;48.114;11.442;2023-06-01T02:01:41;13.50;98.80
14122;DHT22;7139;48.114;11.442;2023-06-01T02:04:10;13.50;98.70
14122;DHT22;7139;48.114;11.442;2023-06-01T02:06:37;13.40;98.80
14122;DHT22;7139;48.114;11.442;2023-06-01T02:09:04;13.40;99.00
14122;DHT22;7139;48.114;11.442;2023-06-01T02:11:32;13.40;99.10
14122;DHT22;7139;48.114;11.442;2023-06-01T02:13:59;13.40;99.20
14122;DHT22;7139;48.114;11.442;2023-06-01T02:16:26;13.40;99.20
14122;DHT22;7139;48.114;11.442;2023-06-01T02:18:54;13.40;99.30
14122;DHT22;7139;48.114;11.442;2023-06-01T02:21:23;13.30;99.40
14122;DHT22;7139;48.114;11.442;2023-06-01T02:23:50;13.30;99.60
14122;DHT22;7139;48.114;11.442;2023-06-01T02:26:17;13.20;99.70
14122;DHT22;7139;48.114;11.442;2023-06-01T02:28:44;13.20;99.80
14122;DHT22;7139;48.114;11.442;2023-06-01T02:31:12;13.20;99.80
14122;DHT22;7139;48.114;11.442;2023-06-01T02:33:39;13.20;99.90
14122;DHT22;7139;48.114;11.442;2023-06-01T02:36:07;13.20;99.90
14122;DHT22;7139;48.114;11.442;2023-06-01T02:38:34;13.10;99.90
14122;DHT22;7139;48.114;11.442;2023-06-01T02:41:01;13.10;99.90
14122;DHT22;7139;48.114;11.442;2023-06-01T02:43:28;13.20;99.90
14122;DHT22;7139;48.114;11.442;2023-06-01T02:45:55;13.20;99.90
14122;DHT22;7139;48.114;11.442;2023-06-01T02:48:21;13.10;99.90
14122;DHT22;7139;48.114;11.442;2023-06-01T02:50:49;13.10;99.90
14122;DHT22;7139;48.114;11.442;2023-06-01T02:53:17;13.10;99.90
14122;DHT22;7139;48.114;11.442;2023-06-01T02:55:44;13.00;99.90
14122;DHT22;7139;48.114;11.442;2023-06-01T02:58:11;13.00;99.90
14122;DHT22;7139;48.114;11.442;2023-06-01T03:00:41;13.00;99.90
14122;DHT22;7139;48.114;11.442;2023-06-01T03:03:08;13.00;99.90
14122;DHT22;7139;48.114;11.442;2023-06-01T03:05:35;13.00;99.90
14122;DHT22;7139;48.114;11.442;2023-06-01T03:08:02;12.90;99.90
14122;DHT22;7139;48.114;11.442;2023-06-01T03:10:30;12.90;99.90
14122;DHT22;7139;48.114;11.442;2023-06-01T03:12:57;12.90;99.90
14122;DHT22;7139;48.114;11.442;2023-06-01T03:15:23;12.90;99.90
14122;DHT22;7139;48.114;11.442;2023-06-01T03:17:50;12.90;99.90
14122;DHT22;7139;48.114;11.442;2023-06-01T03:20:17;12.90;99.90
14122;DHT22;7139;48.114;11.442;2023-06-01T03:22:44;12.80;99.90
14122;DHT22;7139;48.114;11.442;2023-06-01T03:25:12;12.80;99.90
14122;DHT22;7139;48.114;11.442;2023-06-01T03:27:40;12.70;99.90
14122;DHT22;7139;48.114;11.442;2023-06-01T03:30:08;12.70;99.90
14122;DHT22;7139;48.114;11.442;2023-06-01T03:32:36;12.70;99.90
14122;DHT22;7139;48.114;11.442;2023-06-01T03:35:04;12.70;99.90
14122;DHT22;7139;48.114;11.442;2023-06-01T03:37:32;12.60;99.90
14122;DHT22;7139;48.114;11.442;2023-06-01T03:39:59;12.60;99.90
14122;DHT22;7139;48.114;11.442;2023-06-01T03:42:26;12.60;99.90
14122;DHT22;7139;48.114;11.442;2023-06-01T03:44:54;12.60;99.90
14122;DHT22;7139;48.114;11.442;2023-06-01T03:47:21;12.50;99.90
14122;DHT22;7139;48.114;11.442;2023-06-01T03:49:47;12.50;99.90
14122;DHT22;7139;48.114;11.442;2023-06-01T03:52:15;12.50;99.90
14122;DHT22;7139;48.114;11.442;2023-06-01T03:54:43;12.50;99.90
14122;DHT22;7139;48.114;11.442;2023-06-01T03:57:10;12.50;99.90
14122;DHT22;7139;48.114;11.442;2023-06-01T03:59:37;12.50;99.90
14122;DHT22;7139;48.114;11.442;2023-06-01T04:02:05;12.50;99.90
14122;DHT22;7139;48.114;11.442;2023-06-01T04:04:34;12.50;99.90
14122;DHT22;7139;48.114;11.442;2023-06-01T04:07:01;12.50;99.90
14122;DHT22;7139;48.114;11.442;2023-06-01T04:09:29;12.50;99.90
14122;DHT22;7139;48.114;11.442;2023-06-01T04:11:56;12.50;99.90
14122;DHT22;7139;48.114;11.442;2023-06-01T04:14:22;12.50;99.90
14122;DHT22;7139;48.114;11.442;2023-06-01T04:16:49;12.50;99.90
14122;DHT22;7139;48.114;11.442;2023-06-01T04:19:18;12.50;99.90
14122;DHT22;7139;48.114;11.442;2023-06-01T04:21:45;12.60;99.90
14122;DHT22;7139;48.114;11.442;2023-06-01T04:24:12;12.50;99.90
14122;DHT22;7139;48.114;11.442;2023-06-01T04:26:38;12.50;99.90
14122;DHT22;7139;48.114;11.442;2023-06-01T04:29:05;12.60;99.90
14122;DHT22;7139;48.114;11.442;2023-06-01T04:31:34;12.60;99.90
14122;DHT22;7139;48.114;11.442;2023-06-01T04:34:00;12.60;99.90
14122;DHT22;7139;48.114;11.442;2023-06-01T04:36:29;12.60;99.90
14122;DHT22;7139;48.114;11.442;2023-06-01T04:38:56;12.60;99.90
14122;DHT22;7139;48.114;11.442;2023-06-01T04:41:23;12.70;99.90
14122;DHT22;7139;48.114;11.442;2023-06-01T04:43:50;12.70;99.90
14122;DHT22;7139;48.114;11.442;2023-06-01T04:46:19;12.70;99.90
14122;DHT22;7139;48.114;11.442;2023-06-01T04:48:46;12.70;99.90
14122;DHT22;7139;48.114;11.442;2023-06-01T04:51:13;12.70;99.90
14122;DHT22;7139;48.114;11.442;2023-06-01T04:53:46;12.80;99.90
14122;DHT22;7139;48.114;11.442;2023-06-01T04:56:16;12.80;99.90
14122;DHT22;7139;48.114;11.442;2023-06-01T04:58:44;12.90;99.90
14122;DHT22;7139;48.114;11.442;2023-06-01T05:01:10;12.90;99.90
14122;DHT22;7139;48.114;11.442;2023-06-01T05:03:41;13.00;99.90
14122;DHT22;7139;48.114;11.442;2023-06-01T05:06:09;13.00;99.90
14122;DHT22;7139;48.114;11.442;2023-06-01T05:08:36;13.10;99.90
14122;DHT22;7139;48.114;11.442;2023-06-01T05:11:04;13.10;99.90
14122;DHT22;7139;48.114;11.442;2023-06-01T05:13:31;13.10;99.90
14122;DHT22;7139;48.114;11.442;2023-06-01T05:16:00;13.20;99.90
14122;DHT22;7139;48.114;11.442;2023-06-01T05:18:26;13.30;99.90
14122;DHT22;7139;48.114;11.442;2023-06-01T05:20:53;13.30;99.90
14122;DHT22;7139;48.114;11.442;2023-06-01T05:23:20;13.40;99.90
14122;DHT22;7139;48.114;11.442;2023-06-01T05:25:46;13.40;99.90
14122;DHT22;7139;48.114;11.442;2023-06-01T05:28:15;13.50;99.90
14122;DHT22;7139;48.114;11.442;2023-06-01T05:30:41;13.60;99.90
14122;DHT22;7139;48.114;11.442;2023-06-01T05:33:08;13.60;99.90
14122;DHT22;7139;48.114;11.442;2023-06-01T05:35:35;13.70;99.90
14122;DHT22;7139;48.114;11.442;2023-06-01T05:38:02;13.70;99.90
14122;DHT22;7139;48.114;11.442;2023-06-01T05:40:28;13.80;99.90
14122;DHT22;7139;48.114;11.442;2023-06-01T05:42:55;13.90;99.90
14122;DHT22;7139;48.114;11.442;2023-06-01T05:45:23;14.00;99.90
14122;DHT22;7139;48.114;11.442;2023-06-01T05:47:50;14.10;99.90
14122;DHT22;7139;48.114;11.442;2023-06-01T05:50:17;14.20;99.90
14122;DHT22;7139;48.114;11.442;2023-06-01T05:52:43;14.20;99.90
14122;DHT22;7139;48.114;11.442;2023-06-01T05:55:10;14.30;99.90
14122;DHT22;7139;48.114;11.442;2023-06-01T05:57:37;14.40;99.90
14122;DHT22;7139;48.114;11.442;2023-06-01T06:00:04;14.40;99.90
14122;DHT22;7139;48.114;11.442;2023-06-01T06:02:36;14.50;99.90
14122;DHT22;7139;48.114;11.442;2023-06-01T06:05:03;14.60;99.90
14122;DHT22;7139;48.114;11.442;2023-06-01T06:07:31;14.70;99.90
14122;DHT22;7139;48.114;11.442;2023-06-01T06:09:58;14.80;99.90
14122;DHT22;7139;48.114;11.442;2023-06-01T06:12:25;14.90;99.90
14122;DHT22;7139;48.114;11.442;2023-06-01T06:14:51;15.00;99.90
14122;DHT22;7139;48.114;11.442;2023-06-01T06:17:19;15.00;99.90
14122;DHT22;7139;48.114;11.442;2023-06-01T06:19:47;15.10;99.90
14122;DHT22;7139;48.114;11.442;2023-06-01T06:22:15;15.20;99.90
14122;DHT22;7139;48.114;11.442;2023-06-01T06:24:41;15.30;99.90
14122;DHT22;7139;48.114;11.442;2023-06-01T06:27:08;15.40;99.90
14122;DHT22;7139;48.114;11.442;2023-06-01T06:29:35;15.40;99.80
14122;DHT22;7139;48.114;11.442;2023-06-01T06:32:02;15.40;99.00
14122;DHT22;7139;48.114;11.442;2023-06-01T06:34:29;15.50;98.90
14122;DHT22;7139;48.114;11.442;2023-06-01T06:37:02;15.60;99.10
14122;DHT22;7139;48.114;11.442;2023-06-01T06:39:29;15.70;99.00
14122;DHT22;7139;48.114;11.442;2023-06-01T06:41:56;15.80;98.70
14122;DHT22;7139;48.114;11.442;2023-06-01T06:44:23;15.90;99.10
14122;DHT22;7139;48.114;11.442;2023-06-01T06:46:49;16.00;99.20
14122;DHT22;7139;48.114;11.442;2023-06-01T06:49:16;16.10;98.50
14122;DHT22;7139;48.114;11.442;2023-06-01T06:51:44;16.20;97.70
14122;DHT22;7139;48.114;11.442;2023-06-01T06:54:12;16.30;97.20
14122;DHT22;7139;48.114;11.442;2023-06-01T06:56:39;16.40;97.10
14122;DHT22;7139;48.114;11.442;2023-06-01T06:59:06;16.50;97.20
14122;DHT22;7139;48.114;11.442;2023-06-01T07:01:33;16.70;97.20
14122;DHT22;7139;48.114;11.442;2023-06-01T07:04:01;16.80;97.00
14122;DHT22;7139;48.114;11.442;2023-06-01T07:06:28;16.90;96.50
14122;DHT22;7139;48.114;11.442;2023-06-01T07:08:55;17.00;96.30
14122;DHT22;7139;48.114;11.442;2023-06-01T07:11:23;17.10;96.60
14122;DHT22;7139;48.114;11.442;2023-06-01T07:13:52;17.30;96.90
14122;DHT22;7139;48.114;11.442;2023-06-01T07:16:19;17.40;96.20
14122;DHT22;7139;48.114;11.442;2023-06-01T07:18:45;17.40;95.90
14122;DHT22;7139;48.114;11.442;2023-06-01T07:21:12;17.60;95.90
14122;DHT22;7139;48.114;11.442;2023-06-01T07:23:41;17.70;96.60
14122;DHT22;7139;48.114;11.442;2023-06-01T07:26:08;17.80;95.60
14122;DHT22;7139;48.114;11.442;2023-06-01T07:28:36;17.90;94.80
14122;DHT22;7139;48.114;11.442;2023-06-01T07:31:03;18.10;94.40
14122;DHT22;7139;48.114;11.442;2023-06-01T07:33:31;18.20;94.30
14122;DHT22;7139;48.114;11.442;2023-06-01T07:35:59;18.30;94.60
14122;DHT22;7139;48.114;11.442;2023-06-01T07:38:26;18.40;94.50
14122;DHT22;7139;48.114;11.442;2023-06-01T07:40:52;18.60;94.50
14122;DHT22;7139;48.114;11.442;2023-06-01T07:43:19;18.70;93.60
14122;DHT22;7139;48.114;11.442;2023-06-01T07:45:47;18.80;93.70
14122;DHT22;7139;48.114;11.442;2023-06-01T07:48:14;19.00;93.90
14122;DHT22;7139;48.114;11.442;2023-06-01T07:50:41;19.20;93.70
14122;DHT22;7139;48.114;11.442;2023-06-01T07:53:08;19.30;94.00
14122;DHT22;7139;48.114;11.442;2023-06-01T07:55:35;19.50;94.40
14122;DHT22;7139;48.114;11.442;2023-06-01T07:58:02;19.60;93.90
14122;DHT22;7139;48.114;11.442;2023-06-01T08:00:29;19.70;93.50
14122;DHT22;7139;48.114;11.442;2023-06-01T08:02:58;19.80;93.80
14122;DHT22;7139;48.114;11.442;2023-06-01T08:05:31;20.00;93.40
14122;DHT22;7139;48.114;11.442;2023-06-01T08:07:58;20.10;92.50
14122;DHT22;7139;48.114;11.442;2023-06-01T08:10:25;20.20;92.20
14122;DHT22;7139;48.114;11.442;2023-06-01T08:12:53;20.30;91.90
14122;DHT22;7139;48.114;11.442;2023-06-01T08:15:21;20.40;91.70
14122;DHT22;7139;48.114;11.442;2023-06-01T08:17:49;20.50;91.80
14122;DHT22;7139;48.114;11.442;2023-06-01T08:20:17;20.60;90.70
14122;DHT22;7139;48.114;11.442;2023-06-01T08:22:47;20.70;91.80
14122;DHT22;7139;48.114;11.442;2023-06-01T08:25:14;20.90;91.20
14122;DHT22;7139;48.114;11.442;2023-06-01T08:27:41;21.00;91.50
14122;DHT22;7139;48.114;11.442;2023-06-01T08:30:09;21.20;91.20
14122;DHT22;7139;48.114;11.442;2023-06-01T08:32:36;21.30;90.90
14122;DHT22;7139;48.114;11.442;2023-06-01T08:35:04;21.40;91.70
14122;DHT22;7139;48.114;11.442;2023-06-01T08:37:33;21.60;91.70
14122;DHT22;7139;48.114;11.442;2023-06-01T08:40:00;21.80;92.10
14122;DHT22;7139;48.114;11.442;2023-06-01T08:42:30;21.90;91.50
14122;DHT22;7139;48.114;11.442;2023-06-01T08:44:58;22.00;91.00
14122;DHT22;7139;48.114;11.442;2023-06-01T08:47:28;22.10;90.50
14122;DHT22;7139;48.114;11.442;2023-06-01T08:49:55;22.10;88.00
14122;DHT22;7139;48.114;11.442;2023-06-01T08:52:25;22.30;89.20
14122;DHT22;7139;48.114;11.442;2023-06-01T08:54:56;22.30;90.50
14122;DHT22;7139;48.114;11.442;2023-06-01T08:57:24;22.40;87.90
14122;DHT22;7139;48.114;11.442;2023-06-01T08:59:51;22.40;85.30
14122;DHT22;7139;48.114;11.442;2023-06-01T09:02:18;22.40;85.60
14122;DHT22;7139;48.114;11.442;2023-06-01T09:04:45;22.50;86.50
14122;DHT22;7139;48.114;11.442;2023-06-01T09:07:12;22.70;86.80
14122;DHT22;7139;48.114;11.442;2023-06-01T09:09:39;22.80;86.80
14122;DHT22;7139;48.114;11.442;2023-06-01T09:12:24;23.00;87.10
14122;DHT22;7139;48.114;11.442;2023-06-01T09:15:09;23.00;86.20
14122;DHT22;7139;48.114;11.442;2023-06-01T09:17:37;23.10;84.70
14122;DHT22;7139;48.114;11.442;2023-06-01T09:20:04;23.20;84.90
14122;DHT22;7139;48.114;11.442;2023-06-01T09:22:39;23.30;83.80
14122;DHT22;7139;48.114;11.442;2023-06-01T09:25:06;23.40;85.00
14122;DHT22;7139;48.114;11.442;2023-06-01T09:27:44;23.50;83.90
14122;DHT22;7139;48.114;11.442;2023-06-01T09:30:12;23.70;85.70
14122;DHT22;7139;48.114;11.442;2023-06-01T09:32:39;23.80;84.20
14122;DHT22;7139;48.114;11.442;2023-06-01T09:35:07;23.90;84.10
14122;DHT22;7139;48.114;11.442;2023-06-01T09:37:34;24.00;84.60
14122;DHT22;7139;48.114;11.442;2023-06-01T09:40:01;24.20;83.20
14122;DHT22;7139;48.114;11.442;2023-06-01T09:42:33;24.20;82.00
14122;DHT22;7139;48.114;11.442;2023-06-01T09:45:18;24.40;80.00
14122;DHT22;7139;48.114;11.442;2023-06-01T09:47:46;24.40;80.70
14122;DHT22;7139;48.114;11.442;2023-06-01T09:50:32;24.60;85.30
14122;DHT22;7139;48.114;11.442;2023-06-01T09:52:59;24.80;79.30
14122;DHT22;7139;48.114;11.442;2023-06-01T09:55:26;24.60;79.70
14122;DHT22;7139;48.114;11.442;2023-06-01T09:57:53;24.70;80.60
14122;DHT22;7139;48.114;11.442;2023-06-01T10:00:41;24.80;79.20
14122;DHT22;7139;48.114;11.442;2023-06-01T10:03:08;24.90;82.30
14122;DHT22;7139;48.114;11.442;2023-06-01T10:05:35;25.00;82.00
14122;DHT22;7139;48.114;11.442;2023-06-01T10:08:03;25.20;79.30
14122;DHT22;7139;48.114;11.442;2023-06-01T10:10:30;25.20;78.40
14122;DHT22;7139;48.114;11.442;2023-06-01T10:12:58;25.20;80.40
14122;DHT22;7139;48.114;11.442;2023-06-01T10:15:25;25.30;78.10
14122;DHT22;7139;48.114;11.442;2023-06-01T10:17:53;25.20;79.60
14122;DHT22;7139;48.114;11.442;2023-06-01T10:20:20;25.30;78.30
14122;DHT22;7139;48.114;11.442;2023-06-01T10:22:48;25.30;77.70
14122;DHT22;7139;48.114;11.442;2023-06-01T10:25:18;25.40;80.70
14122;DHT22;7139;48.114;11.442;2023-06-01T10:27:54;25.50;80.80
14122;DHT22;7139;48.114;11.442;2023-06-01T10:30:22;25.60;77.30
14122;DHT22;7139;48.114;11.442;2023-06-01T10:32:49;25.70;78.00
14122;DHT22;7139;48.114;11.442;2023-06-01T10:38:31;25.70;79.00
14122;DHT22;7139;48.114;11.442;2023-06-01T10:41:29;25.70;78.10
14122;DHT22;7139;48.114;11.442;2023-06-01T10:43:56;25.80;77.40
14122;DHT22;7139;48.114;11.442;2023-06-01T10:46:37;26.00;78.90
14122;DHT22;7139;48.114;11.442;2023-06-01T10:49:04;26.10;76.10
14122;DHT22;7139;48.114;11.442;2023-06-01T10:51:31;26.00;75.00
14122;DHT22;7139;48.114;11.442;2023-06-01T10:54:25;26.00;79.40
14122;DHT22;7139;48.114;11.442;2023-06-01T10:57:17;26.20;74.00
14122;DHT22;7139;48.114;11.442;2023-06-01T10:59:44;26.10;72.60
14122;DHT22;7139;48.114;11.442;2023-06-01T11:02:32;25.90;72.80
14122;DHT22;7139;48.114;11.442;2023-06-01T11:07:59;26.20;73.40
14122;DHT22;7139;48.114;11.442;2023-06-01T11:10:55;26.40;75.10
14122;DHT22;7139;48.114;11.442;2023-06-01T11:13:24;26.60;73.80
14122;DHT22;7139;48.114;11.442;2023-06-01T11:16:27;26.60;73.10
14122;DHT22;7139;48.114;11.442;2023-06-01T11:18:55;26.40;70.30
14122;DHT22;7139;48.114;11.442;2023-06-01T11:21:24;26.10;71.80
14122;DHT22;7139;48.114;11.442;2023-06-01T11:23:52;26.20;73.00
14122;DHT22;7139;48.114;11.442;2023-06-01T11:26:22;26.40;71.90
14122;DHT22;7139;48.114;11.442;2023-06-01T11:28:51;26.60;75.90
14122;DHT22;7139;48.114;11.442;2023-06-01T11:31:20;26.80;75.30
14122;DHT22;7139;48.114;11.442;2023-06-01T11:33:49;27.00;74.20
14122;DHT22;7139;48.114;11.442;2023-06-01T11:36:18;27.00;71.00
14122;DHT22;7139;48.114;11.442;2023-06-01T11:38:46;27.00;71.70
14122;DHT22;7139;48.114;11.442;2023-06-01T11:41:12;27.10;71.30
14122;DHT22;7139;48.114;11.442;2023-06-01T11:43:40;26.70;68.40
14122;DHT22;7139;48.114;11.442;2023-06-01T11:46:08;26.50;68.50
14122;DHT22;7139;48.114;11.442;2023-06-01T11:48:36;26.50;71.20
14122;DHT22;7139;48.114;11.442;2023-06-01T11:51:03;26.40;71.60
14122;DHT22;7139;48.114;11.442;2023-06-01T11:53:31;26.30;70.50
14122;DHT22;7139;48.114;11.442;2023-06-01T11:55:58;26.10;68.30
14122;DHT22;7139;48.114;11.442;2023-06-01T11:58:27;26.00;70.70
14122;DHT22;7139;48.114;11.442;2023-06-01T12:00:57;25.80;68.30
14122;DHT22;7139;48.114;11.442;2023-06-01T12:03:24;25.90;73.60
14122;DHT22;7139;48.114;11.442;2023-06-01T12:05:51;26.10;72.20
14122;DHT22;7139;48.114;11.442;2023-06-01T12:08:20;26.30;74.20
14122;DHT22;7139;48.114;11.442;2023-06-01T12:10:48;26.50;72.80
14122;DHT22;7139;48.114;11.442;2023-06-01T12:13:16;26.60;67.40
14122;DHT22;7139;48.114;11.442;2023-06-01T12:15:44;26.70;69.90
14122;DHT22;7139;48.114;11.442;2023-06-01T12:18:12;26.80;70.10
14122;DHT22;7139;48.114;11.442;2023-06-01T12:20:40;26.80;71.00
14122;DHT22;7139;48.114;11.442;2023-06-01T12:23:14;26.90;70.10
14122;DHT22;7139;48.114;11.442;2023-06-01T12:25:51;26.90;69.60
14122;DHT22;7139;48.114;11.442;2023-06-01T12:28:19;26.90;67.10
14122;DHT22;7139;48.114;11.442;2023-06-01T12:30:46;26.90;69.20
14122;DHT22;7139;48.114;11.442;2023-06-01T12:33:31;27.00;69.80
14122;DHT22;7139;48.114;11.442;2023-06-01T12:36:06;26.90;70.10
14122;DHT22;7139;48.114;11.442;2023-06-01T12:38:49;26.90;70.30
14122;DHT22;7139;48.114;11.442;2023-06-01T12:41:17;26.90;68.90
14122;DHT22;7139;48.114;11.442;2023-06-01T12:43:44;26.90;67.40
14122;DHT22;7139;48.114;11.442;2023-06-01T12:46:17;26.90;66.80
14122;DHT22;7139;48.114;11.442;2023-06-01T12:48:46;26.90;70.20
14122;DHT22;7139;48.114;11.442;2023-06-01T12:51:13;26.90;67.30
14122;DHT22;7139;48.114;11.442;2023-06-01T12:53:40;27.00;66.40
14122;DHT22;7139;48.114;11.442;2023-06-01T12:56:08;27.10;69.40
14122;DHT22;7139;48.114;11.442;2023-06-01T12:58:45;27.00;67.60
14122;DHT22;7139;48.114;11.442;2023-06-01T13:01:12;26.90;64.30
14122;DHT22;7139;48.114;11.442;2023-06-01T13:03:39;27.00;67.00
14122;DHT22;7139;48.114;11.442;2023-06-01T13:06:07;27.00;64.90
14122;DHT22;7139;48.114;11.442;2023-06-01T13:08:34;26.90;64.70
14122;DHT22;7139;48.114;11.442;2023-06-01T13:11:01;26.90;63.40
14122;DHT22;7139;48.114;11.442;2023-06-01T13:13:28;26.80;64.80
14122;DHT22;7139;48.114;11.442;2023-06-01T13:15:55;26.80;65.10
14122;DHT22;7139;48.114;11.442;2023-06-01T13:18:22;26.90;65.20
14122;DHT22;7139;48.114;11.442;2023-06-01T13:20:48;27.00;65.10
14122;DHT22;7139;48.114;11.442;2023-06-01T13:23:17;27.10;65.50
14122;DHT22;7139;48.114;11.442;2023-06-01T13:25:44;26.90;64.60
14122;DHT22;7139;48.114;11.442;2023-06-01T13:28:11;26.60;65.50
14122;DHT22;7139;48.114;11.442;2023-06-01T13:30:39;26.70;67.80
14122;DHT22;7139;48.114;11.442;2023-06-01T13:33:05;26.70;66.10
14122;DHT22;7139;48.114;11.442;2023-06-01T13:35:33;26.70;64.10
14122;DHT22;7139;48.114;11.442;2023-06-01T13:38:00;26.70;66.70
14122;DHT22;7139;48.114;11.442;2023-06-01T13:40:28;26.80;65.40
14122;DHT22;7139;48.114;11.442;2023-06-01T13:42:54;26.90;64.10
14122;DHT22;7139;48.114;11.442;2023-06-01T13:45:21;27.00;66.00
14122;DHT22;7139;48.114;11.442;2023-06-01T13:47:48;26.80;65.70
14122;DHT22;7139;48.114;11.442;2023-06-01T13:50:16;26.40;66.60
14122;DHT22;7139;48.114;11.442;2023-06-01T13:52:42;26.10;65.50
14122;DHT22;7139;48.114;11.442;2023-06-01T13:55:09;26.00;66.20
14122;DHT22;7139;48.114;11.442;2023-06-01T13:57:40;25.90;65.80
14122;DHT22;7139;48.114;11.442;2023-06-01T14:00:08;25.90;66.30
14122;DHT22;7139;48.114;11.442;2023-06-01T14:02:36;26.10;66.00
14122;DHT22;7139;48.114;11.442;2023-06-01T14:05:03;26.10;67.70
14122;DHT22;7139;48.114;11.442;2023-06-01T14:07:30;26.20;69.60
14122;DHT22;7139;48.114;11.442;2023-06-01T14:09:57;26.20;66.80
14122;DHT22;7139;48.114;11.442;2023-06-01T14:12:24;26.30;69.20
14122;DHT22;7139;48.114;11.442;2023-06-01T14:14:52;26.30;70.20
14122;DHT22;7139;48.114;11.442;2023-06-01T14:17:18;26.40;69.80
14122;DHT22;7139;48.114;11.442;2023-06-01T14:19:45;26.20;64.00
14122;DHT22;7139;48.114;11.442;2023-06-01T14:22:12;26.20;65.40
14122;DHT22;7139;48.114;11.442;2023-06-01T14:24:39;26.30;65.90
14122;DHT22;7139;48.114;11.442;2023-06-01T14:27:06;26.30;66.40
14122;DHT22;7139;48.114;11.442;2023-06-01T14:29:33;26.10;66.10
14122;DHT22;7139;48.114;11.442;2023-06-01T14:32:01;26.20;65.70
14122;DHT22;7139;48.114;11.442;2023-06-01T14:34:28;26.20;68.20
14122;DHT22;7139;48.114;11.442;2023-06-01T14:36:55;26.30;68.70
14122;DHT22;7139;48.114;11.442;2023-06-01T14:39:21;26.40;67.00
14122;DHT22;7139;48.114;11.442;2023-06-01T14:41:48;26.30;65.40
14122;DHT22;7139;48.114;11.442;2023-06-01T14:44:15;26.20;63.30
14122;DHT22;7139;48.114;11.442;2023-06-01T14:46:42;26.20;65.90
14122;DHT22;7139;48.114;11.442;2023-06-01T14:49:10;26.10;63.40
14122;DHT22;7139;48.114;11.442;2023-06-01T14:51:46;26.10;63.90
14122;DHT22;7139;48.114;11.442;2023-06-01T14:54:14;25.90;62.50
14122;DHT22;7139;48.114;11.442;2023-06-01T14:56:42;25.70;62.30
14122;DHT22;7139;48.114;11.442;2023-06-01T14:59:08;25.60;63.20
14122;DHT22;7139;48.114;11.442;2023-06-01T15:01:35;25.70;62.90
14122;DHT22;7139;48.114;11.442;2023-06-01T15:04:02;25.70;62.90
14122;DHT22;7139;48.114;11.442;2023-06-01T15:06:30;25.70;64.30
14122;DHT22;7139;48.114;11.442;2023-06-01T15:08:57;25.50;63.30
14122;DHT22;7139;48.114;11.442;2023-06-01T15:11:24;25.40;63.40
14122;DHT22;7139;48.114;11.442;2023-06-01T15:13:51;25.40;63.40
14122;DHT22;7139;48.114;11.442;2023-06-01T15:16:18;25.30;63.10
14122;DHT22;7139;48.114;11.442;2023-06-01T15:19:00;25.30;61.70
14122;DHT22;7139;48.114;11.442;2023-06-01T15:21:27;25.40;64.50
14122;DHT22;7139;48.114;11.442;2023-06-01T15:23:55;25.10;62.60
14122;DHT22;7139;48.114;11.442;2023-06-01T15:26:22;25.10;61.70
14122;DHT22;7139;48.114;11.442;2023-06-01T15:28:48;25.10;65.30
14122;DHT22;7139;48.114;11.442;2023-06-01T15:31:15;25.20;67.40
14122;DHT22;7139;48.114;11.442;2023-06-01T15:33:42;25.20;67.40
14122;DHT22;7139;48.114;11.442;2023-06-01T15:36:08;25.10;66.50
14122;DHT22;7139;48.114;11.442;2023-06-01T15:38:35;25.10;65.80
14122;DHT22;7139;48.114;11.442;2023-06-01T15:41:03;25.20;66.30
14122;DHT22;7139;48.114;11.442;2023-06-01T15:43:30;25.10;66.60
14122;DHT22;7139;48.114;11.442;2023-06-01T15:45:57;25.10;66.80